Time;durP1;ratioP1;P1;durP2;ratioP2;P2;SDS_P1;SDS_P2;PMS_P1;PMS_P2;Temp;Humidity;BMP_temperature;BMP_pressure;BME280_temperature;BME280_humidity;BME280_pressure;Samples;Min_cycle;Max_cycle;Signal;HPM_P1;HPM_P2
2022/03/31 00:08:45;;;;;;;0.77;0.38;;;4.30;99.90;;;;;;20794474;28;20048;-80
2022/03/31 00:18:46;;;;;;;1.40;0.40;;;4.30;99.90;;;;;;20787994;28;20037;-82
2022/03/31 00:39:45;;;;;;;0.98;0.32;;;3.80;99.90;;;;;;20812011;28;20153;-80
2022/03/31 00:49:46;;;;;;;0.95;0.35;;;3.70;99.90;;;;;;20758773;28;20033;-80
2022/03/31 00:59:47;;;;;;;1.10;0.40;;;3.50;99.90;;;;;;20777777;28;20052;-79
2022/03/31 01:09:49;;;;;;;1.08;0.30;;;3.30;99.90;;;;;;20780113;28;20523;-81
2022/03/31 01:19:50;;;;;;;0.98;0.40;;;3.10;99.90;;;;;;20765942;28;20038;-81
2022/03/31 01:29:52;;;;;;;1.30;0.28;;;3.10;99.90;;;;;;20765478;28;20063;-81
2022/03/31 01:39:53;;;;;;;0.77;0.30;;;2.90;99.90;;;;;;20764557;28;20045;-82
2022/03/31 01:49:54;;;;;;;0.70;0.20;;;3.00;99.90;;;;;;20800956;28;20042;-81
2022/03/31 01:59:56;;;;;;;0.55;0.17;;;2.90;99.90;;;;;;20777194;28;20041;-81
2022/03/31 02:10:00;;;;;;;0.65;0.20;;;2.90;99.90;;;;;;20767786;28;20493;-82
2022/03/31 02:20:01;;;;;;;1.80;0.38;;;3.00;99.90;;;;;;20778153;28;20045;-82
2022/03/31 02:30:04;;;;;;;1.02;0.20;;;3.10;99.90;;;;;;20783466;28;20049;-81
2022/03/31 02:40:06;;;;;;;1.00;0.32;;;3.10;99.90;;;;;;20782462;28;20045;-81
2022/03/31 02:50:08;;;;;;;0.95;0.32;;;3.10;99.90;;;;;;20776359;28;20045;-81
2022/03/31 03:00:09;;;;;;;0.60;0.10;;;3.00;99.90;;;;;;20791638;28;20492;-83
2022/03/31 03:10:10;;;;;;;0.68;0.30;;;2.70;99.90;;;;;;20789615;28;20060;-81
2022/03/31 03:20:13;;;;;;;1.60;0.40;;;2.60;99.90;;;;;;20783615;28;20037;-82
2022/03/31 03:30:18;;;;;;;0.95;0.28;;;2.70;99.90;;;;;;20781081;28;20045;-81
2022/03/31 03:40:19;;;;;;;0.73;0.43;;;2.70;99.90;;;;;;20797523;28;20056;-81
2022/03/31 03:50:21;;;;;;;0.25;0.10;;;2.70;99.90;;;;;;20773643;28;20045;-81
2022/03/31 04:00:22;;;;;;;2.38;0.70;;;2.60;99.90;;;;;;20773692;28;20046;-81
2022/03/31 04:10:23;;;;;;;0.95;0.40;;;2.80;99.90;;;;;;20790561;28;20041;-82
2022/03/31 04:20:24;;;;;;;0.82;0.30;;;2.70;99.90;;;;;;20803748;28;20570;-82
2022/03/31 04:30:26;;;;;;;0.68;0.20;;;2.80;99.90;;;;;;20797239;28;20052;-81
2022/03/31 04:40:27;;;;;;;2.22;0.40;;;2.80;99.90;;;;;;20783965;28;20049;-81
2022/03/31 04:50:28;;;;;;;4.13;0.98;;;2.90;99.90;;;;;;20792610;28;20041;-81
2022/03/31 05:00:29;;;;;;;0.63;0.30;;;2.90;99.90;;;;;;20776871;28;20037;-82
2022/03/31 05:10:31;;;;;;;0.95;0.20;;;3.00;99.90;;;;;;20786899;28;20053;-82
2022/03/31 05:20:32;;;;;;;1.52;0.35;;;3.10;99.90;;;;;;20790803;28;20072;-82
2022/03/31 05:30:33;;;;;;;1.30;0.35;;;3.10;99.90;;;;;;20784328;28;20045;-82
2022/03/31 05:40:34;;;;;;;0.77;0.30;;;3.10;99.90;;;;;;20762506;28;20045;-83
2022/03/31 05:50:35;;;;;;;0.82;0.50;;;3.00;99.90;;;;;;20787761;28;20057;-82
2022/03/31 06:00:37;;;;;;;0.63;0.32;;;2.90;99.90;;;;;;20796872;28;20124;-82
2022/03/31 06:10:38;;;;;;;2.10;0.60;;;3.00;99.90;;;;;;20781767;28;20037;-82
2022/03/31 06:20:39;;;;;;;1.30;0.40;;;3.10;99.90;;;;;;20799543;28;20042;-82
2022/03/31 06:30:41;;;;;;;1.15;0.47;;;3.10;99.90;;;;;;20791955;28;20534;-83
2022/03/31 06:41:06;;;;;;;2.05;0.90;;;3.20;99.90;;;;;;20800320;28;20445;-82
2022/03/31 06:51:04;;;;;;;2.33;0.70;;;3.40;99.90;;;;;;20802681;28;20044;-82
2022/03/31 07:01:05;;;;;;;1.05;0.52;;;3.70;99.90;;;;;;20799345;28;20056;-81
2022/03/31 07:11:07;;;;;;;1.27;0.40;;;3.60;99.90;;;;;;20804903;28;20041;-81
2022/03/31 07:21:08;;;;;;;0.77;0.22;;;3.80;99.90;;;;;;20802970;28;20042;-83
2022/03/31 07:31:11;;;;;;;0.82;0.40;;;3.80;99.90;;;;;;20798005;28;20513;-84
2022/03/31 07:41:14;;;;;;;1.38;0.47;;;3.70;99.90;;;;;;20798803;28;20049;-82
2022/03/31 07:51:16;;;;;;;2.28;0.50;;;3.90;99.90;;;;;;20802041;28;20041;-82
2022/03/31 08:01:17;;;;;;;1.40;0.60;;;4.20;99.90;;;;;;20788499;28;20041;-82
2022/03/31 08:11:18;;;;;;;0.98;0.52;;;4.30;99.90;;;;;;20787502;28;20045;-82
2022/03/31 08:21:19;;;;;;;1.42;0.50;;;4.40;99.90;;;;;;20776853;28;20034;-82
2022/03/31 08:31:20;;;;;;;1.48;0.52;;;4.40;99.90;;;;;;20782197;28;20056;-83
2022/03/31 08:41:25;;;;;;;1.38;0.63;;;4.50;99.90;;;;;;20806909;28;20041;-82
2022/03/31 08:51:27;;;;;;;2.38;0.82;;;4.50;99.90;;;;;;20805539;28;20041;-84
2022/03/31 09:01:28;;;;;;;2.75;0.98;;;4.80;99.90;;;;;;20777276;28;20068;-84
2022/03/31 09:11:34;;;;;;;4.20;1.90;;;4.80;99.90;;;;;;20778819;28;20049;-83
2022/03/31 09:21:52;;;;;;;3.05;1.27;;;5.10;99.90;;;;;;20777796;28;20037;-82
2022/03/31 09:32:06;;;;;;;5.38;1.80;;;5.20;99.90;;;;;;20798478;28;20405;-83
2022/03/31 09:42:12;;;;;;;3.40;1.23;;;5.30;99.90;;;;;;20794921;28;20489;-82
2022/03/31 09:52:13;;;;;;;4.47;1.48;;;5.30;99.90;;;;;;20790525;28;20041;-83
2022/03/31 10:02:15;;;;;;;4.88;1.90;;;5.50;99.90;;;;;;20773747;28;20034;-83
2022/03/31 10:12:31;;;;;;;5.43;2.13;;;5.60;99.90;;;;;;20778776;28;20060;-82
2022/03/31 10:32:53;;;;;;;3.88;1.58;;;5.60;99.90;;;;;;20803482;28;20465;-83
2022/03/31 10:42:55;;;;;;;5.43;1.63;;;5.70;99.90;;;;;;20780546;28;20046;-82
2022/03/31 10:53:01;;;;;;;4.43;1.75;;;5.70;99.90;;;;;;20792940;28;20505;-83
2022/03/31 11:03:02;;;;;;;4.90;1.95;;;5.80;99.90;;;;;;20765330;28;20064;-80
2022/03/31 11:13:03;;;;;;;3.72;1.63;;;6.10;99.90;;;;;;20785638;28;20045;-82
2022/03/31 11:23:06;;;;;;;3.50;1.67;;;6.30;99.90;;;;;;20795782;28;20083;-79
2022/03/31 11:33:11;;;;;;;3.65;1.83;;;6.20;99.90;;;;;;20797802;28;20055;-79
2022/03/31 11:43:14;;;;;;;3.60;1.48;;;6.20;99.90;;;;;;20872989;28;20045;-79
2022/03/31 11:53:17;;;;;;;3.20;1.10;;;6.40;99.90;;;;;;20784714;28;20041;-79
2022/03/31 12:03:18;;;;;;;4.15;1.33;;;6.40;99.90;;;;;;20795879;28;20038;-82
2022/03/31 12:13:21;;;;;;;3.20;1.60;;;6.10;99.90;;;;;;20772328;28;20046;-80
2022/03/31 12:23:23;;;;;;;2.55;1.38;;;5.90;99.90;;;;;;20785418;28;20045;-82
2022/03/31 12:33:26;;;;;;;3.17;1.50;;;5.90;99.90;;;;;;20776390;28;20505;-82
2022/03/31 12:43:27;;;;;;;2.40;1.10;;;5.80;99.90;;;;;;20796831;28;20046;-82
2022/03/31 12:53:38;;;;;;;1.83;0.70;;;5.60;99.90;;;;;;20792004;28;20044;-82
2022/03/31 13:03:39;;;;;;;1.67;0.90;;;5.40;99.90;;;;;;20766391;28;20029;-82
2022/03/31 13:13:42;;;;;;;2.63;1.00;;;5.40;99.90;;;;;;20792987;28;20054;-82
2022/03/31 13:23:43;;;;;;;1.30;0.70;;;5.30;99.90;;;;;;20786755;28;20273;-82
2022/03/31 13:33:44;;;;;;;1.10;0.20;;;5.10;99.90;;;;;;20779851;28;21575;-82
2022/03/31 13:43:46;;;;;;;1.13;0.40;;;4.90;99.90;;;;;;20790315;28;20045;-81
2022/03/31 13:53:53;;;;;;;1.20;0.40;;;4.90;99.90;;;;;;20785365;28;20041;-81
2022/03/31 14:03:55;;;;;;;0.90;0.47;;;4.80;99.90;;;;;;20780559;28;20034;-81
2022/03/31 14:13:57;;;;;;;1.70;0.68;;;5.00;99.90;;;;;;20784708;28;20125;-81
2022/03/31 14:24:03;;;;;;;1.15;0.47;;;5.20;99.90;;;;;;20804170;28;20037;-81
2022/03/31 14:34:07;;;;;;;2.92;0.82;;;5.30;99.90;;;;;;20779622;28;20041;-81
2022/03/31 14:44:08;;;;;;;0.70;0.40;;;5.20;99.90;;;;;;20788374;28;20054;-81
2022/03/31 14:54:10;;;;;;;1.88;0.40;;;5.10;99.90;;;;;;20777767;28;20045;-81
2022/03/31 15:04:14;;;;;;;0.90;0.32;;;4.80;99.90;;;;;;20800777;28;20452;-81
2022/03/31 15:14:33;;;;;;;0.90;0.40;;;4.60;99.90;;;;;;20790768;28;20041;-82
2022/03/31 15:24:36;;;;;;;0.95;0.60;;;4.50;99.90;;;;;;20792344;28;20042;-81
2022/03/31 15:34:38;;;;;;;0.98;0.50;;;4.50;99.90;;;;;;20781965;28;20144;-81
2022/03/31 15:44:39;;;;;;;1.27;0.60;;;4.50;99.90;;;;;;20805503;28;20056;-81
2022/03/31 15:54:40;;;;;;;1.88;0.60;;;4.30;99.90;;;;;;20812776;28;20044;-81
2022/03/31 16:04:41;;;;;;;1.02;0.30;;;4.40;99.90;;;;;;20790592;28;20037;-82
2022/03/31 16:14:43;;;;;;;1.35;0.63;;;4.40;99.90;;;;;;20799285;28;20455;-81
2022/03/31 16:24:44;;;;;;;1.30;0.60;;;4.30;99.90;;;;;;20775979;28;20037;-81
2022/03/31 16:34:48;;;;;;;1.70;0.80;;;4.50;99.90;;;;;;20779859;28;20534;-81
2022/03/31 16:44:49;;;;;;;1.48;0.73;;;4.40;99.90;;;;;;20799219;28;20393;-81
2022/03/31 16:54:50;;;;;;;1.70;0.70;;;4.30;99.90;;;;;;20796737;28;20561;-81
2022/03/31 17:04:52;;;;;;;1.60;0.60;;;4.20;99.90;;;;;;20778805;28;20645;-81
2022/03/31 17:14:53;;;;;;;1.60;0.63;;;4.10;99.90;;;;;;20784315;28;20041;-81
2022/03/31 17:24:54;;;;;;;1.50;0.60;;;4.10;99.90;;;;;;20775859;28;20038;-80
2022/03/31 17:34:55;;;;;;;2.03;0.90;;;4.00;99.90;;;;;;20793728;28;20050;-80
2022/03/31 17:44:56;;;;;;;3.03;1.10;;;4.00;99.90;;;;;;20764043;28;20052;-80
2022/03/31 17:54:59;;;;;;;2.47;1.20;;;4.10;99.90;;;;;;20778376;28;20536;-80
2022/03/31 18:05:00;;;;;;;4.45;1.30;;;3.90;99.90;;;;;;20768050;28;20060;-80
2022/03/31 18:15:02;;;;;;;3.20;1.42;;;3.80;99.90;;;;;;20792507;28;20052;-81
2022/03/31 18:25:05;;;;;;;4.90;2.40;;;3.70;99.90;;;;;;20802618;28;20046;-82
2022/03/31 18:35:13;;;;;;;4.18;1.83;;;3.30;99.90;;;;;;20823402;28;20049;-82
2022/03/31 18:45:15;;;;;;;6.70;2.80;;;3.10;99.90;;;;;;20825200;28;20489;-82
2022/03/31 18:55:16;;;;;;;4.38;1.80;;;3.00;99.90;;;;;;20821716;28;20493;-85
2022/03/31 19:05:18;;;;;;;5.25;2.13;;;2.80;99.90;;;;;;20818813;28;20061;-82
2022/03/31 19:15:19;;;;;;;5.20;2.30;;;2.70;99.90;;;;;;20824388;28;20046;-81
2022/03/31 19:25:20;;;;;;;4.63;2.28;;;2.50;99.90;;;;;;20839865;28;20042;-82
2022/03/31 19:35:22;;;;;;;5.05;2.30;;;2.40;99.90;;;;;;20839632;28;20057;-81
2022/03/31 19:45:23;;;;;;;4.70;1.75;;;2.40;99.90;;;;;;20817189;28;20451;-82
2022/03/31 19:55:24;;;;;;;3.65;1.45;;;2.40;99.90;;;;;;20818409;28;20052;-81
2022/03/31 20:05:30;;;;;;;5.20;2.15;;;2.50;99.90;;;;;;20805151;28;20041;-81
2022/03/31 20:15:31;;;;;;;2.97;1.30;;;2.50;99.90;;;;;;20796242;28;20037;-82
2022/03/31 20:25:32;;;;;;;4.88;2.10;;;2.40;99.90;;;;;;20788165;28;20222;-81
2022/03/31 20:35:33;;;;;;;4.30;1.90;;;2.30;99.90;;;;;;20798913;28;20049;-81
2022/03/31 20:45:39;;;;;;;4.55;1.10;;;2.30;99.90;;;;;;20791399;28;20049;-81
2022/03/31 20:55:40;;;;;;;5.07;1.58;;;2.20;99.90;;;;;;20800745;28;20064;-81
2022/03/31 21:05:41;;;;;;;5.00;1.60;;;2.10;99.90;;;;;;20793820;28;20060;-81
2022/03/31 21:15:44;;;;;;;2.63;0.98;;;2.20;99.90;;;;;;20788631;28;20045;-81
2022/03/31 21:25:45;;;;;;;1.80;0.82;;;2.20;99.90;;;;;;20771823;28;20041;-81
2022/03/31 21:35:46;;;;;;;8.80;0.77;;;2.10;99.90;;;;;;20787878;28;20049;-81
2022/03/31 21:45:47;;;;;;;2.25;0.90;;;2.10;99.90;;;;;;20777634;28;20037;-80
2022/03/31 21:55:50;;;;;;;3.47;1.08;;;1.90;99.90;;;;;;20796679;28;20041;-82
2022/03/31 22:05:56;;;;;;;1.83;0.75;;;1.80;99.90;;;;;;20812001;28;21423;-82
2022/03/31 22:15:57;;;;;;;;;;;1.80;99.90;;;;;;20803701;28;20184;-82
2022/03/31 22:25:58;;;;;;;2.05;0.82;;;1.70;99.90;;;;;;20802686;28;19994;-81
2022/03/31 22:35:59;;;;;;;2.08;0.85;;;1.80;99.90;;;;;;20787872;28;20059;-81
2022/03/31 22:46:02;;;;;;;3.60;0.70;;;1.80;99.90;;;;;;20778924;28;20037;-81
2022/03/31 22:56:05;;;;;;;2.17;0.60;;;1.70;99.90;;;;;;20808207;28;20038;-80
2022/03/31 23:06:08;;;;;;;3.58;0.70;;;1.70;99.90;;;;;;20860085;28;20045;-81
2022/03/31 23:16:09;;;;;;;1.00;0.60;;;1.60;99.90;;;;;;20797753;28;20054;-81
2022/03/31 23:26:12;;;;;;;0.70;0.38;;;1.60;99.90;;;;;;20777562;28;20064;-80
2022/03/31 23:36:13;;;;;;;1.08;0.55;;;1.70;99.90;;;;;;20798672;28;20472;-80
2022/03/31 23:46:14;;;;;;;2.22;0.68;;;1.70;99.90;;;;;;20801006;28;20048;-80
2022/03/31 23:56:17;;;;;;;1.33;0.60;;;1.60;99.90;;;;;;20816053;28;20159;-79
